Time;durP1;ratioP1;P1;durP2;ratioP2;P2;SDS_P1;SDS_P2;PMS_P1;PMS_P2;Temp;Humidity;BMP_temperature;BMP_pressure;BME280_temperature;BME280_humidity;BME280_pressure;Samples;Min_cycle;Max_cycle;Signal;HPM_P1;HPM_P2
2023/07/15 00:02:01;;;;;;;103.68;98.90;;;;;;;27.18;35.99;100256.66;5094491;28;20304;-73
2023/07/15 00:04:29;;;;;;;110.20;105.18;;;;;;;27.17;36.21;100262.56;5077180;28;20024;-73
2023/07/15 00:06:54;;;;;;;108.45;103.50;;;;;;;27.15;35.87;100262.94;5094191;28;20028;-79
2023/07/15 00:09:26;;;;;;;107.72;103.00;;;;;;;27.13;36.15;100256.16;5094072;28;20024;-73
2023/07/15 00:11:51;;;;;;;113.47;107.95;;;;;;;27.11;36.04;100266.78;5077641;28;20024;-73
2023/07/15 00:14:23;;;;;;;110.10;105.20;;;;;;;27.10;36.19;100266.00;5076894;28;20036;-73
2023/07/15 00:16:49;;;;;;;106.15;101.55;;;;;;;27.09;36.15;100261.63;5093426;28;20024;-73
2023/07/15 00:19:17;;;;;;;107.53;102.78;;;;;;;27.06;35.81;100267.88;5095068;28;20024;-72
2023/07/15 00:21:43;;;;;;;107.63;102.82;;;;;;;27.05;35.84;100265.50;5094885;28;20047;-73
2023/07/15 00:24:08;;;;;;;110.25;105.45;;;;;;;27.03;35.95;100278.91;5076631;28;20475;-73
2023/07/15 00:26:34;;;;;;;111.80;106.90;;;;;;;27.02;35.61;100271.78;5093418;28;20028;-74
2023/07/15 00:29:01;;;;;;;107.70;102.95;;;;;;;27.01;35.82;100272.94;5093166;28;20455;-74
2023/07/15 00:31:27;;;;;;;111.53;106.53;;;;;;;26.99;35.80;100278.84;5093961;28;20394;-73
2023/07/15 00:33:52;;;;;;;108.13;103.32;;;;;;;26.97;35.78;100272.88;5094480;28;20057;-73
2023/07/15 00:36:18;;;;;;;107.10;102.43;;;;;;;26.97;35.64;100276.44;5076209;28;20036;-73
2023/07/15 00:38:44;;;;;;;105.43;100.70;;;;;;;26.95;35.74;100269.66;5094337;28;20051;-73
2023/07/15 00:41:33;;;;;;;108.10;103.07;;;;;;;26.93;35.56;100270.00;5093256;28;20415;-74
2023/07/15 00:43:59;;;;;;;107.82;103.13;;;;;;;26.91;35.61;100271.53;5094514;28;20121;-74
2023/07/15 00:46:48;;;;;;;103.90;99.40;;;;;;;26.90;35.64;100272.72;5093154;28;20446;-73
2023/07/15 00:49:21;;;;;;;104.82;99.97;;;;;;;26.89;35.88;100282.22;5087493;28;20040;-73
2023/07/15 00:52:12;;;;;;;102.38;97.88;;;;;;;26.86;35.55;100285.69;5092525;28;20035;-74
2023/07/15 00:54:50;;;;;;;111.68;106.47;;;;;;;26.84;35.78;100283.31;5088814;28;20032;-74
2023/07/15 00:57:16;;;;;;;111.65;106.35;;;;;;;26.83;35.77;100283.66;5093975;28;20024;-74
2023/07/15 00:59:43;;;;;;;102.18;97.68;;;;;;;26.81;35.74;100280.44;5094093;28;20028;-73
2023/07/15 01:02:11;;;;;;;106.22;101.03;;;;;;;26.80;35.50;100276.88;5092675;28;20039;-74
2023/07/15 01:04:37;;;;;;;109.25;104.30;;;;;;;26.79;35.86;100283.59;5092637;28;20023;-74
2023/07/15 01:07:04;;;;;;;102.65;98.05;;;;;;;26.76;35.87;100285.13;5093824;28;20080;-74
2023/07/15 01:09:30;;;;;;;111.70;106.65;;;;;;;26.76;35.49;100281.53;5093966;28;20397;-74
2023/07/15 01:11:56;;;;;;;104.35;99.38;;;;;;;26.73;35.66;100280.28;5093921;28;20440;-74
2023/07/15 01:14:21;;;;;;;104.90;100.25;;;;;;;26.72;35.51;100289.78;5076282;28;20039;-74
2023/07/15 01:16:47;;;;;;;104.35;99.53;;;;;;;26.71;35.71;100281.81;5075624;28;20127;-74
2023/07/15 01:19:14;;;;;;;104.53;99.90;;;;;;;26.70;35.93;100283.00;5093894;28;20081;-74
2023/07/15 01:21:40;;;;;;;106.78;101.78;;;;;;;26.69;36.04;100292.47;5075398;28;20413;-74
2023/07/15 01:24:08;;;;;;;106.47;101.60;;;;;;;26.66;35.62;100294.00;5092304;28;20043;-74
2023/07/15 01:26:34;;;;;;;99.35;94.28;;;;;;;26.66;35.66;100301.50;5093291;28;20051;-74
2023/07/15 01:28:59;;;;;;;103.80;99.10;;;;;;;26.65;35.54;100297.13;5093790;28;20056;-74
2023/07/15 01:31:26;;;;;;;105.03;100.35;;;;;;;26.64;35.81;100298.31;5092958;28;20020;-74
2023/07/15 01:33:52;;;;;;;104.65;99.75;;;;;;;26.62;35.71;100300.63;5093477;28;20032;-74
2023/07/15 01:36:18;;;;;;;106.22;101.60;;;;;;;26.60;35.73;100312.06;5092185;28;20020;-73
2023/07/15 01:38:43;;;;;;;101.10;96.63;;;;;;;26.59;36.08;100316.00;5093430;28;20167;-73
2023/07/15 01:41:09;;;;;;;107.22;102.43;;;;;;;26.58;36.04;100311.63;5093289;28;20078;-73
2023/07/15 01:43:35;;;;;;;103.85;99.35;;;;;;;26.58;35.87;100316.38;5093888;28;20448;-74
2023/07/15 01:46:00;;;;;;;105.90;101.05;;;;;;;26.55;36.00;100318.69;5074972;28;20036;-73
2023/07/15 01:48:26;;;;;;;101.10;96.60;;;;;;;26.55;35.72;100323.44;5092401;28;20032;-75
2023/07/15 01:50:51;;;;;;;102.32;97.22;;;;;;;26.53;35.90;100315.50;5093726;28;20436;-74
2023/07/15 01:53:17;;;;;;;101.90;97.40;;;;;;;26.52;36.14;100324.13;5092566;28;20047;-73
2023/07/15 01:55:42;;;;;;;102.72;98.07;;;;;;;26.49;35.81;100322.09;5093246;28;20032;-74
2023/07/15 01:58:08;;;;;;;105.13;100.32;;;;;;;26.49;35.61;100320.13;5093219;28;20028;-73
2023/07/15 02:00:34;;;;;;;105.47;100.57;;;;;;;26.47;35.99;100319.66;5092149;28;20040;-73
2023/07/15 02:02:59;;;;;;;102.13;97.43;;;;;;;26.46;36.04;100322.78;5095787;28;20043;-74
2023/07/15 02:05:25;;;;;;;98.22;93.82;;;;;;;26.44;35.96;100320.41;5096087;28;20069;-74
2023/07/15 02:07:50;;;;;;;101.97;97.35;;;;;;;26.43;35.88;100326.28;5097859;28;20081;-73
2023/07/15 02:10:17;;;;;;;102.90;98.05;;;;;;;26.41;35.88;100320.28;5095812;28;20032;-73
2023/07/15 02:12:43;;;;;;;102.95;98.30;;;;;;;26.39;35.84;100325.41;5097159;28;20444;-74
2023/07/15 02:15:08;;;;;;;96.30;92.00;;;;;;;26.38;35.91;100318.25;5095679;28;20073;-74
2023/07/15 02:17:34;;;;;;;99.05;94.65;;;;;;;26.36;35.93;100326.94;5097479;28;20024;-74
2023/07/15 02:19:59;;;;;;;98.88;94.28;;;;;;;26.35;36.30;100319.78;5096127;28;20359;-74
2023/07/15 02:22:25;;;;;;;100.78;96.30;;;;;;;26.33;35.91;100319.31;5095603;28;20500;-73
2023/07/15 02:24:51;;;;;;;101.72;97.15;;;;;;;26.31;35.99;100322.47;5097002;28;20035;-74
2023/07/15 02:27:16;;;;;;;105.82;101.03;;;;;;;26.30;36.27;100326.38;5097189;28;20554;-74
2023/07/15 02:29:44;;;;;;;98.30;94.00;;;;;;;26.28;35.99;100314.88;5096571;28;20041;-73
2023/07/15 02:32:15;;;;;;;;;;;;;;;26.26;36.07;100325.53;5096818;28;20367;-74
2023/07/15 02:34:40;;;;;;;105.70;100.82;;;;;;;26.24;36.50;100318.72;5097437;28;19914;-75
2023/07/15 02:37:06;;;;;;;97.97;93.57;;;;;;;26.23;36.14;100325.41;5096910;28;20028;-74
2023/07/15 02:39:35;;;;;;;100.97;96.18;;;;;;;26.22;36.00;100323.81;5096651;28;20035;-74
2023/07/15 02:42:01;;;;;;;101.50;96.80;;;;;;;26.20;36.22;100317.84;5095396;28;20475;-74
2023/07/15 02:44:27;;;;;;;103.50;98.90;;;;;;;26.18;36.53;100318.19;5096027;28;20031;-75
2023/07/15 02:46:52;;;;;;;104.90;100.32;;;;;;;26.17;36.10;100308.28;5095389;28;20042;-75
2023/07/15 02:49:18;;;;;;;100.72;96.13;;;;;;;26.16;36.25;100312.22;5095514;28;20023;-74
2023/07/15 02:51:43;;;;;;;100.47;95.90;;;;;;;26.16;36.63;100311.41;5095413;28;20435;-74
2023/07/15 02:54:08;;;;;;;100.25;95.80;;;;;;;26.13;36.64;100315.69;5095805;28;20102;-74
2023/07/15 02:56:34;;;;;;;99.88;95.43;;;;;;;26.12;36.68;100308.56;5096517;28;20024;-74
2023/07/15 02:58:59;;;;;;;101.07;96.57;;;;;;;26.11;36.54;100306.97;5096353;28;20367;-75
2023/07/15 03:01:25;;;;;;;102.53;97.60;;;;;;;26.08;36.73;100307.66;5094793;28;20084;-74
2023/07/15 03:03:50;;;;;;;96.78;92.47;;;;;;;26.07;36.75;100304.09;5095584;28;20026;-74
2023/07/15 03:06:16;;;;;;;97.40;93.03;;;;;;;26.07;36.68;100308.81;5097065;28;20032;-75
2023/07/15 03:08:41;;;;;;;98.93;93.85;;;;;;;26.04;36.66;100302.03;5096838;28;20412;-74
2023/07/15 03:11:08;;;;;;;96.53;92.22;;;;;;;26.03;36.47;100308.75;5095843;28;20020;-74
2023/07/15 03:13:33;;;;;;;94.05;89.47;;;;;;;26.02;36.65;100312.66;5094270;28;20413;-75
2023/07/15 03:15:59;;;;;;;97.68;93.07;;;;;;;26.01;36.91;100311.06;5096039;28;20456;-74
2023/07/15 03:18:25;;;;;;;96.40;92.00;;;;;;;26.00;37.02;100311.41;5094931;28;20055;-74
2023/07/15 03:20:51;;;;;;;95.65;91.05;;;;;;;25.98;36.89;100308.19;5095961;28;20028;-74
2023/07/15 03:23:16;;;;;;;96.05;91.65;;;;;;;25.97;36.59;100307.41;5096410;28;20105;-74
2023/07/15 03:25:42;;;;;;;99.50;94.85;;;;;;;25.96;36.92;100311.34;5095863;28;20035;-74
2023/07/15 03:28:07;;;;;;;96.53;92.10;;;;;;;25.92;36.69;100313.22;5078202;28;20032;-74
2023/07/15 03:30:32;;;;;;;98.30;93.88;;;;;;;25.93;36.85;100311.22;5095577;28;20410;-75
2023/07/15 03:32:58;;;;;;;100.18;95.68;;;;;;;25.91;37.01;100306.06;5096216;28;20047;-75
2023/07/15 03:35:23;;;;;;;99.47;94.85;;;;;;;25.89;37.00;100303.66;5077983;28;20111;-75
2023/07/15 03:37:49;;;;;;;93.85;89.72;;;;;;;25.88;36.79;100307.59;5094764;28;20440;-75
2023/07/15 03:40:14;;;;;;;95.50;90.90;;;;;;;25.86;37.24;100309.91;5096056;28;20111;-75
2023/07/15 03:42:41;;;;;;;97.97;93.38;;;;;;;25.85;37.14;100313.81;5094430;28;20032;-75
2023/07/15 03:45:07;;;;;;;97.50;92.97;;;;;;;25.84;36.91;100308.63;5096233;28;20344;-75
2023/07/15 03:47:36;;;;;;;98.97;94.47;;;;;;;25.81;37.10;100301.84;5095356;28;20032;-75
2023/07/15 03:50:04;;;;;;;101.97;97.28;;;;;;;25.81;37.00;100307.38;5095643;28;20074;-75
2023/07/15 03:52:29;;;;;;;97.17;92.67;;;;;;;25.79;37.34;100308.91;5093877;28;20072;-75
2023/07/15 03:54:56;;;;;;;97.95;93.55;;;;;;;25.77;37.01;100311.22;5095299;28;20016;-75
2023/07/15 03:57:21;;;;;;;97.40;92.97;;;;;;;25.76;36.99;100310.41;5094844;28;20371;-75
2023/07/15 03:59:46;;;;;;;99.18;94.70;;;;;;;25.74;37.30;100309.16;5095204;28;20024;-75
2023/07/15 04:02:12;;;;;;;94.40;90.10;;;;;;;25.71;37.30;100305.16;5094224;28;20081;-75
2023/07/15 04:04:37;;;;;;;98.68;93.78;;;;;;;25.71;37.19;100307.91;5095328;28;20460;-75
2023/07/15 04:07:03;;;;;;;98.60;94.30;;;;;;;25.69;37.19;100307.47;5095018;28;20515;-75
2023/07/15 04:09:28;;;;;;;94.55;89.80;;;;;;;25.67;37.32;100307.81;5095205;28;20027;-74
2023/07/15 04:11:56;;;;;;;101.18;96.60;;;;;;;25.66;37.58;100308.97;5095058;28;20402;-75
2023/07/15 04:14:21;;;;;;;94.13;89.90;;;;;;;25.63;37.68;100318.00;5094802;28;20438;-75
2023/07/15 04:16:47;;;;;;;94.32;90.13;;;;;;;25.63;37.56;100309.69;5094913;28;20021;-75
2023/07/15 04:19:13;;;;;;;94.85;90.55;;;;;;;25.60;37.88;100307.63;5093434;28;20052;-73
2023/07/15 04:21:38;;;;;;;97.00;92.65;;;;;;;25.60;37.42;100309.56;5094165;28;20079;-73
2023/07/15 04:24:04;;;;;;;94.75;89.85;;;;;;;25.58;37.70;100312.72;5092942;28;20036;-74
2023/07/15 04:26:29;;;;;;;91.97;87.65;;;;;;;25.56;37.77;100322.53;5076554;28;20063;-73
2023/07/15 04:28:55;;;;;;;92.07;88.00;;;;;;;25.55;37.74;100309.84;5076160;28;20024;-74
2023/07/15 04:31:21;;;;;;;96.03;91.72;;;;;;;25.53;37.95;100306.63;5094460;28;20034;-76
2023/07/15 04:33:48;;;;;;;96.65;92.35;;;;;;;25.52;38.18;100311.34;5094563;28;20023;-73
2023/07/15 04:36:16;;;;;;;94.03;89.25;;;;;;;25.51;37.98;100317.25;5094499;28;20024;-73
2023/07/15 04:38:42;;;;;;;93.57;89.22;;;;;;;25.48;37.97;100321.53;5094408;28;20028;-74
2023/07/15 04:41:07;;;;;;;92.10;87.78;;;;;;;25.48;38.40;100316.81;5094841;28;20028;-74
2023/07/15 04:43:32;;;;;;;96.03;91.43;;;;;;;25.46;38.41;100321.88;5093320;28;20440;-74
2023/07/15 04:45:59;;;;;;;94.50;90.20;;;;;;;25.45;38.15;100327.75;5094815;28;20199;-74
2023/07/15 04:48:25;;;;;;;96.22;91.88;;;;;;;25.43;38.71;100321.78;5093059;28;20028;-74
2023/07/15 04:50:51;;;;;;;95.28;91.00;;;;;;;25.42;38.31;100326.50;5094100;28;20024;-74
2023/07/15 04:53:16;;;;;;;95.13;90.72;;;;;;;25.41;38.69;100321.34;5093934;28;20020;-74
2023/07/15 04:55:43;;;;;;;94.70;90.50;;;;;;;25.39;38.68;100324.44;5094075;28;20077;-75
2023/07/15 04:58:09;;;;;;;94.95;89.82;;;;;;;25.38;39.00;100328.38;5092640;28;20379;-74
2023/07/15 05:00:34;;;;;;;91.95;87.65;;;;;;;25.37;38.89;100332.28;5093963;28;20028;-73
2023/07/15 05:03:01;;;;;;;91.15;87.10;;;;;;;25.36;38.69;100329.88;5094458;28;20106;-74
2023/07/15 05:05:27;;;;;;;93.40;89.07;;;;;;;25.35;39.07;100331.03;5094276;28;20395;-74
2023/07/15 05:07:53;;;;;;;92.45;88.28;;;;;;;25.34;39.20;100318.38;5094540;28;20461;-74
2023/07/15 05:10:19;;;;;;;91.80;87.63;;;;;;;25.33;39.57;100323.09;5092612;28;20106;-74
2023/07/15 05:12:45;;;;;;;90.95;86.70;;;;;;;25.32;39.31;100310.41;5093640;28;20123;-74
2023/07/15 05:15:10;;;;;;;95.30;91.00;;;;;;;25.32;39.50;100315.16;5093797;28;20024;-74
2023/07/15 05:17:37;;;;;;;93.18;88.95;;;;;;;25.31;39.17;100327.38;5092585;28;20062;-74
2023/07/15 05:20:03;;;;;;;91.97;87.35;;;;;;;25.30;39.69;100325.75;5092653;28;20427;-74
2023/07/15 05:22:28;;;;;;;89.95;85.93;;;;;;;25.30;39.41;100334.03;5093308;28;20062;-75
2023/07/15 05:24:55;;;;;;;89.35;85.35;;;;;;;25.29;39.66;100336.00;5076262;28;20357;-74
2023/07/15 05:27:20;;;;;;;92.03;87.72;;;;;;;25.30;39.58;100339.56;5093858;28;20028;-75
2023/07/15 05:29:45;;;;;;;94.38;90.05;;;;;;;25.30;39.83;100337.63;5092179;28;20020;-74
2023/07/15 05:32:11;;;;;;;93.90;89.57;;;;;;;25.29;40.17;100330.47;5092036;28;20050;-74
2023/07/15 05:34:36;;;;;;;94.13;89.93;;;;;;;25.29;39.90;100338.78;5091801;28;20028;-75
2023/07/15 05:37:03;;;;;;;92.10;87.63;;;;;;;25.29;40.02;100349.03;5093545;28;20508;-74
2023/07/15 05:39:28;;;;;;;90.95;86.95;;;;;;;25.30;39.89;100345.09;5092611;28;20032;-77
2023/07/15 05:41:53;;;;;;;92.07;87.80;;;;;;;25.29;39.64;100347.06;5093540;28;20115;-75
2023/07/15 05:44:19;;;;;;;92.78;88.32;;;;;;;25.29;39.78;100349.84;5092717;28;20036;-75
2023/07/15 05:46:44;;;;;;;91.38;87.28;;;;;;;25.29;39.85;100358.13;5093830;28;20031;-75
2023/07/15 05:49:10;;;;;;;92.65;88.43;;;;;;;25.30;39.57;100361.69;5093710;28;20024;-75
2023/07/15 05:51:35;;;;;;;95.68;91.22;;;;;;;25.29;39.67;100349.84;5093299;28;20031;-75
2023/07/15 05:54:00;;;;;;;93.40;89.03;;;;;;;25.30;40.18;100353.41;5092363;28;20134;-74
2023/07/15 05:56:26;;;;;;;96.85;92.35;;;;;;;25.29;40.29;100349.84;5093060;28;20471;-75
2023/07/15 05:58:51;;;;;;;93.68;89.30;;;;;;;25.31;40.19;100352.25;5091822;28;20035;-74
2023/07/15 06:01:17;;;;;;;90.40;86.00;;;;;;;25.30;39.71;100345.09;5093579;28;20426;-76
2023/07/15 06:03:42;;;;;;;94.13;89.75;;;;;;;25.30;39.77;100345.09;5091999;28;20368;-76
2023/07/15 06:06:09;;;;;;;95.68;91.28;;;;;;;25.29;40.05;100344.31;5093279;28;20110;-75
2023/07/15 06:08:34;;;;;;;92.72;88.47;;;;;;;25.30;39.96;100343.16;5092152;28;20024;-74
2023/07/15 06:11:00;;;;;;;93.18;88.95;;;;;;;25.31;39.76;100344.75;5091832;28;20024;-75
2023/07/15 06:13:25;;;;;;;95.53;91.30;;;;;;;25.31;40.09;100360.56;5093168;28;20024;-74
2023/07/15 06:15:51;;;;;;;93.72;89.38;;;;;;;25.31;39.90;100355.81;5093118;28;20054;-75
2023/07/15 06:18:17;;;;;;;93.22;88.80;;;;;;;25.31;39.88;100350.28;5093434;28;20036;-76
2023/07/15 06:20:43;;;;;;;92.90;88.68;;;;;;;25.31;40.26;100344.75;5092536;28;20413;-74
2023/07/15 06:23:08;;;;;;;90.90;86.75;;;;;;;25.33;40.03;100352.72;5093634;28;20131;-77
2023/07/15 06:25:36;;;;;;;92.72;88.28;;;;;;;25.32;40.30;100346.34;5093522;28;20327;-75
2023/07/15 06:28:03;;;;;;;91.47;87.07;;;;;;;25.33;39.98;100334.16;5093286;28;20027;-75
2023/07/15 06:30:28;;;;;;;90.68;86.43;;;;;;;25.34;39.87;100354.31;5093491;28;20352;-74
2023/07/15 06:32:54;;;;;;;93.10;88.95;;;;;;;25.34;39.87;100330.22;5092881;28;20448;-75
2023/07/15 06:35:20;;;;;;;93.65;89.35;;;;;;;25.35;40.31;100334.63;5092574;28;20448;-74
2023/07/15 06:37:47;;;;;;;95.10;90.90;;;;;;;25.36;40.26;100341.75;5091372;28;20119;-74
2023/07/15 06:40:15;;;;;;;95.97;91.45;;;;;;;25.37;39.79;100339.78;5092651;28;20451;-74
2023/07/15 06:42:40;;;;;;;95.22;90.93;;;;;;;25.39;39.79;100345.75;5091294;28;20030;-76
2023/07/15 06:45:06;;;;;;;90.80;86.60;;;;;;;25.39;39.78;100351.28;5075019;28;20028;-75
2023/07/15 06:47:31;;;;;;;95.43;91.10;;;;;;;25.40;39.97;100356.47;5092744;28;20024;-76
2023/07/15 06:49:57;;;;;;;92.63;88.53;;;;;;;25.42;40.09;100345.06;5096048;28;20028;-76
2023/07/15 06:52:22;;;;;;;92.55;88.38;;;;;;;25.43;39.79;100354.97;5095174;28;20028;-74
2023/07/15 06:54:52;;;;;;;93.47;89.15;;;;;;;25.44;40.33;100338.00;5095058;28;20046;-76
2023/07/15 06:57:17;;;;;;;93.15;88.22;;;;;;;25.46;40.03;100346.75;5096378;28;20024;-74
2023/07/15 06:59:43;;;;;;;91.25;86.13;;;;;;;25.47;40.18;100342.03;5096655;28;20023;-75
2023/07/15 07:02:08;;;;;;;93.18;88.55;;;;;;;25.49;39.85;100350.78;5096203;28;20051;-74
2023/07/15 07:04:34;;;;;;;94.53;90.13;;;;;;;25.50;39.97;100352.38;5095531;28;20040;-73
2023/07/15 07:06:59;;;;;;;91.95;87.68;;;;;;;25.52;40.45;100355.59;5096001;28;20030;-74
2023/07/15 07:09:25;;;;;;;92.88;88.75;;;;;;;25.54;40.39;100364.34;5094898;28;20051;-74
2023/07/15 07:11:50;;;;;;;94.15;89.70;;;;;;;25.56;40.26;100369.53;5095601;28;20028;-73
2023/07/15 07:14:16;;;;;;;93.85;89.30;;;;;;;25.59;40.36;100366.84;5096247;28;20409;-74
2023/07/15 07:16:41;;;;;;;95.57;91.25;;;;;;;25.62;40.17;100370.88;5095698;28;20114;-75
2023/07/15 07:19:07;;;;;;;94.22;90.03;;;;;;;25.66;40.58;100361.53;5094908;28;20085;-75
2023/07/15 07:21:33;;;;;;;93.90;89.70;;;;;;;25.68;40.33;100364.75;5077493;28;20418;-75
2023/07/15 07:23:58;;;;;;;96.63;92.30;;;;;;;25.71;40.51;100366.00;5096074;28;20024;-74
2023/07/15 07:26:24;;;;;;;95.07;90.68;;;;;;;25.75;40.40;100374.38;5096292;28;20020;-75
2023/07/15 07:28:50;;;;;;;99.05;94.45;;;;;;;25.78;40.15;100365.38;5095713;28;20440;-75
2023/07/15 07:31:17;;;;;;;96.95;92.45;;;;;;;25.81;40.47;100362.72;5094744;28;20467;-76
2023/07/15 07:33:43;;;;;;;92.53;88.45;;;;;;;25.85;40.60;100369.16;5095423;28;20047;-74
2023/07/15 07:36:09;;;;;;;94.00;89.70;;;;;;;25.88;40.65;100359.38;5095338;28;20053;-75
2023/07/15 07:38:35;;;;;;;99.90;95.45;;;;;;;25.91;40.69;100375.25;5094360;28;20455;-76
2023/07/15 07:41:08;;;;;;;95.10;90.88;;;;;;;25.96;40.57;100371.44;5095400;28;20036;-74
2023/07/15 07:43:35;;;;;;;97.80;93.20;;;;;;;25.99;40.52;100373.47;5077979;28;20028;-75
2023/07/15 07:46:01;;;;;;;96.90;92.50;;;;;;;26.02;41.02;100365.25;5096000;28;20060;-75
2023/07/15 07:48:27;;;;;;;95.43;91.28;;;;;;;26.06;40.93;100362.59;5094743;28;20028;-78
2023/07/15 07:50:54;;;;;;;100.55;95.72;;;;;;;26.10;41.00;100364.25;5095657;28;20028;-76
2023/07/15 07:53:20;;;;;;;94.57;90.38;;;;;;;26.14;41.23;100366.34;5093590;28;20027;-74
2023/07/15 07:55:45;;;;;;;102.18;97.35;;;;;;;26.17;41.42;100363.66;5093584;28;20035;-75
2023/07/15 07:58:10;;;;;;;96.72;92.32;;;;;;;26.22;41.45;100376.41;5092896;28;20428;-74
2023/07/15 08:00:36;;;;;;;99.72;95.07;;;;;;;26.25;41.22;100389.53;5093268;28;20024;-73
2023/07/15 08:03:02;;;;;;;99.88;95.25;;;;;;;26.29;41.20;100398.75;5094995;28;20060;-74
2023/07/15 08:05:28;;;;;;;98.78;94.38;;;;;;;26.32;41.44;100386.97;5094970;28;20119;-74
2023/07/15 08:07:53;;;;;;;99.47;94.97;;;;;;;26.36;41.53;100381.50;5094559;28;20071;-73
2023/07/15 08:10:19;;;;;;;99.57;95.18;;;;;;;26.39;41.29;100381.59;5094603;28;20065;-74
2023/07/15 08:12:44;;;;;;;101.18;96.70;;;;;;;26.44;41.46;100386.06;5094160;28;20471;-73
2023/07/15 08:15:10;;;;;;;101.50;96.85;;;;;;;26.48;41.64;100382.19;5094977;28;20030;-73
2023/07/15 08:17:36;;;;;;;102.57;98.00;;;;;;;26.53;41.58;100389.44;5094447;28;20055;-75
2023/07/15 08:20:02;;;;;;;98.75;94.43;;;;;;;26.55;41.69;100374.09;5093829;28;20081;-76
2023/07/15 08:22:28;;;;;;;102.25;97.68;;;;;;;26.60;41.43;100373.00;5094468;28;20032;-75
2023/07/15 08:24:54;;;;;;;106.95;102.15;;;;;;;26.63;41.85;100386.13;5092941;28;20469;-74
2023/07/15 08:27:19;;;;;;;106.22;101.32;;;;;;;26.68;41.66;100396.13;5076446;28;20035;-73
2023/07/15 08:29:45;;;;;;;102.13;97.57;;;;;;;26.72;41.50;100391.50;5093192;28;20336;-76
2023/07/15 08:32:10;;;;;;;104.13;99.32;;;;;;;26.76;41.84;100393.19;5094076;28;20035;-74
2023/07/15 08:34:35;;;;;;;103.38;98.88;;;;;;;26.81;42.17;100396.81;5093921;28;20479;-74
2023/07/15 08:37:01;;;;;;;105.25;100.55;;;;;;;26.83;41.79;100403.59;5093758;28;20104;-73
2023/07/15 08:39:26;;;;;;;104.40;99.70;;;;;;;26.88;41.65;100406.09;5092641;28;20032;-74
2023/07/15 08:41:53;;;;;;;105.05;100.07;;;;;;;26.92;41.92;100400.66;5092661;28;20516;-75
2023/07/15 08:44:19;;;;;;;104.13;99.65;;;;;;;26.95;41.90;100406.25;5093374;28;20313;-74
2023/07/15 08:46:45;;;;;;;105.63;100.90;;;;;;;26.99;42.01;100409.13;5092764;28;20035;-74
2023/07/15 08:49:11;;;;;;;105.20;100.60;;;;;;;27.03;41.92;100418.31;5092667;28;20059;-76
2023/07/15 08:51:38;;;;;;;106.60;101.70;;;;;;;27.08;42.08;100417.22;5093939;28;20490;-74
2023/07/15 08:54:08;;;;;;;110.32;105.13;;;;;;;27.11;41.73;100417.28;5093466;28;20118;-74
2023/07/15 08:56:36;;;;;;;107.78;102.88;;;;;;;27.14;41.73;100421.31;5093478;28;20020;-76
2023/07/15 08:59:06;;;;;;;111.75;106.80;;;;;;;27.17;41.56;100421.41;5093484;28;20063;-75
2023/07/15 09:01:34;;;;;;;109.93;105.20;;;;;;;27.20;41.50;100425.44;5092776;28;20081;-76
2023/07/15 09:04:00;;;;;;;109.65;104.50;;;;;;;27.24;41.28;100408.88;5092122;28;20036;-75
2023/07/15 09:06:27;;;;;;;109.22;104.05;;;;;;;27.27;41.36;100413.72;5094207;28;20022;-73
2023/07/15 09:08:52;;;;;;;114.35;109.28;;;;;;;27.32;41.73;100418.97;5093332;28;20115;-75
2023/07/15 09:11:19;;;;;;;112.30;107.38;;;;;;;27.34;41.55;100425.75;5092879;28;20107;-74
2023/07/15 09:13:44;;;;;;;108.38;103.45;;;;;;;27.36;41.81;100425.38;5091803;28;20468;-75
2023/07/15 09:16:10;;;;;;;112.07;107.07;;;;;;;27.40;41.59;100418.75;5093175;28;20119;-76
2023/07/15 09:18:42;;;;;;;111.57;106.63;;;;;;;27.44;41.39;100412.47;5092400;28;20040;-76
2023/07/15 09:21:12;;;;;;;111.22;106.32;;;;;;;27.46;41.86;100421.22;5093069;28;20051;-76
2023/07/15 09:23:40;;;;;;;113.45;108.13;;;;;;;27.50;41.59;100439.56;5091445;28;20046;-75
2023/07/15 09:26:06;;;;;;;114.90;109.80;;;;;;;27.52;41.47;100423.34;5091913;28;20036;-75
2023/07/15 09:28:32;;;;;;;110.97;105.97;;;;;;;27.55;41.65;100427.38;5093370;28;20096;-75
2023/07/15 09:30:57;;;;;;;106.95;102.10;;;;;;;27.57;41.27;100430.59;5092963;28;20440;-76
2023/07/15 09:33:41;;;;;;;112.15;107.18;;;;;;;27.61;41.68;100417.56;5092051;28;20107;-74
2023/07/15 09:36:07;;;;;;;110.82;105.88;;;;;;;27.63;41.46;100421.56;5092291;28;20069;-76
2023/07/15 09:38:37;;;;;;;108.47;103.78;;;;;;;27.64;41.40;100425.16;5091920;28;20039;-75
2023/07/15 09:41:04;;;;;;;109.72;104.93;;;;;;;27.68;41.15;100439.13;5094196;28;20028;-79
2023/07/15 09:43:47;;;;;;;112.78;107.75;;;;;;;27.69;41.18;100452.59;5093357;28;20027;-72
2023/07/15 09:46:15;;;;;;;111.53;106.70;;;;;;;27.71;41.08;100446.69;5093657;28;20090;-77
2023/07/15 09:48:41;;;;;;;110.43;105.53;;;;;;;27.72;41.14;100448.28;5075788;28;20067;-74
2023/07/15 09:51:09;;;;;;;111.95;107.05;;;;;;;27.74;41.34;100451.50;5092927;28;20036;-73
2023/07/15 09:53:35;;;;;;;111.85;107.03;;;;;;;27.77;41.07;100473.78;5093214;28;20425;-74
2023/07/15 09:56:04;;;;;;;117.28;112.07;;;;;;;27.78;40.83;100463.50;5093450;28;20466;-74
2023/07/15 09:58:30;;;;;;;112.95;108.05;;;;;;;27.80;40.92;100461.16;5091898;28;20149;-74
2023/07/15 10:01:03;;;;;;;118.28;113.20;;;;;;;27.83;40.80;100457.66;5093148;28;20032;-75
2023/07/15 10:03:34;;;;;;;119.20;113.72;;;;;;;27.84;41.01;100453.72;5093410;28;20039;-76
2023/07/15 10:06:00;;;;;;;112.60;107.13;;;;;;;27.87;40.62;100441.06;5093366;28;20468;-75
2023/07/15 10:08:28;;;;;;;112.60;107.75;;;;;;;27.88;40.71;100443.50;5091978;28;20032;-74
2023/07/15 10:10:53;;;;;;;114.88;109.88;;;;;;;27.89;40.99;100442.31;5093012;28;20024;-76
2023/07/15 10:13:19;;;;;;;110.00;105.18;;;;;;;27.91;40.86;100431.66;5093065;28;20028;-72
2023/07/15 10:15:44;;;;;;;111.95;106.82;;;;;;;27.93;40.79;100425.75;5091884;28;20120;-74
2023/07/15 10:18:16;;;;;;;116.22;111.05;;;;;;;27.94;40.73;100421.78;5093171;28;20046;-74
2023/07/15 10:20:56;;;;;;;116.65;111.60;;;;;;;27.95;40.68;100420.63;5093032;28;20048;-73
2023/07/15 10:23:29;;;;;;;116.95;111.63;;;;;;;27.96;40.87;100397.25;5096616;28;20044;-71
2023/07/15 10:25:59;;;;;;;113.40;108.10;;;;;;;27.98;40.88;100406.81;5096081;28;20123;-73
2023/07/15 10:28:24;;;;;;;113.00;107.57;;;;;;;27.99;40.71;100419.50;5097270;28;20020;-78
2023/07/15 10:31:11;;;;;;;110.30;105.50;;;;;;;28.00;40.91;100415.56;5096778;28;20035;-74
2023/07/15 10:33:52;;;;;;;113.45;108.43;;;;;;;28.01;41.05;100427.47;5096823;28;20023;-71
2023/07/15 10:36:34;;;;;;;112.82;107.93;;;;;;;28.01;41.23;100422.72;5097236;28;20128;-72
2023/07/15 10:39:22;;;;;;;110.93;106.15;;;;;;;28.03;40.99;100423.16;5096601;28;20116;-71
2023/07/15 10:41:52;;;;;;;110.97;105.97;;;;;;;28.04;41.16;100419.19;5096420;28;20032;-74
2023/07/15 10:44:25;;;;;;;115.18;110.07;;;;;;;28.05;41.21;100420.03;5095331;28;20031;-72
2023/07/15 10:47:14;;;;;;;115.45;110.05;;;;;;;28.09;40.98;100420.06;5096319;28;20035;-72
2023/07/15 10:49:42;;;;;;;111.13;106.22;;;;;;;28.10;40.90;100419.72;5095090;28;20024;-73
2023/07/15 10:52:08;;;;;;;116.57;111.07;;;;;;;28.12;41.14;100427.66;5096029;28;20020;-76
2023/07/15 10:54:40;;;;;;;114.70;109.80;;;;;;;28.14;40.97;100425.31;5096262;28;20024;-72
2023/07/15 10:57:11;;;;;;;117.90;112.25;;;;;;;28.15;40.88;100421.34;5077918;28;20055;-71
2023/07/15 10:59:38;;;;;;;112.53;107.65;;;;;;;28.17;40.77;100425.41;5096094;28;20036;-73
2023/07/15 11:02:04;;;;;;;115.30;110.32;;;;;;;28.20;40.98;100427.44;5095714;28;20024;-71